Time;durP1;ratioP1;P1;durP2;ratioP2;P2;SDS_P1;SDS_P2;PMS_P1;PMS_P2;Temp;Humidity;BMP_temperature;BMP_pressure;BME280_temperature;BME280_humidity;BME280_pressure;Samples;Min_cycle;Max_cycle;Signal;HPM_P1;HPM_P2
2021/11/30 00:08:33;;;;;;;23.40;14.47;;;;;;;1.28;100.00;98786.50;21070389;28;20233;-58
2021/11/30 00:19:09;;;;;;;23.00;14.40;;;;;;;1.18;100.00;98819.44;21069056;28;20572;-59
2021/11/30 00:29:46;;;;;;;19.90;11.90;;;;;;;1.18;100.00;98831.72;21069026;28;20325;-59
2021/11/30 00:40:17;;;;;;;13.00;10.13;;;;;;;1.15;100.00;98852.88;21053254;28;20232;-59
2021/11/30 00:50:53;;;;;;;15.93;11.00;;;;;;;1.25;100.00;98864.63;21068135;28;20234;-59
2021/11/30 01:01:31;;;;;;;9.10;8.07;;;;;;;1.14;100.00;98886.19;21050571;28;20229;-60
2021/11/30 01:12:07;;;;;;;11.10;8.47;;;;;;;1.15;100.00;98893.13;21067254;28;20259;-59
2021/11/30 01:22:45;;;;;;;9.50;8.30;;;;;;;1.13;100.00;98904.63;21066798;28;20276;-59
2021/11/30 01:33:22;;;;;;;10.00;7.33;;;;;;;1.06;100.00;98906.72;21082101;28;20313;-59
2021/11/30 01:44:02;;;;;;;10.13;7.40;;;;;;;0.88;100.00;98913.69;21066078;28;20256;-60
2021/11/30 01:54:40;;;;;;;9.27;7.23;;;;;;;0.81;100.00;98933.31;21080495;28;20230;-60
2021/11/30 02:05:18;;;;;;;8.50;6.70;;;;;;;0.77;100.00;98930.88;21079562;28;20248;-59
2021/11/30 02:15:56;;;;;;;7.00;6.20;;;;;;;0.67;100.00;98930.47;21078320;28;20238;-59
2021/11/30 02:26:35;;;;;;;6.30;5.57;;;;;;;0.64;100.00;98941.09;21044282;28;20232;-59
2021/11/30 02:37:15;;;;;;;9.90;5.93;;;;;;;0.67;100.00;98946.22;21059797;28;20221;-59
2021/11/30 02:47:52;;;;;;;8.13;5.83;;;;;;;0.62;100.00;98963.94;21073550;28;20695;-59
2021/11/30 02:58:29;;;;;;;10.13;7.30;;;;;;;0.69;100.00;98965.38;21075646;28;20217;-60
2021/11/30 03:09:06;;;;;;;11.53;7.80;;;;;;;0.65;100.00;98975.16;21074476;28;20249;-59
2021/11/30 03:59:28;;;;;;;4.80;4.30;;;;;;;0.26;100.00;98988.28;20785092;27;8308000;-59
2021/11/30 04:10:05;;;;;;;5.63;4.13;;;;;;;0.18;100.00;98979.91;21141378;28;20229;-61
2021/11/30 04:40:33;;;;;;;7.37;6.10;;;;;;;0.23;100.00;99013.81;20835364;27;8302985;-60
2021/11/30 05:01:08;;;;;;;13.83;8.87;;;;;;;0.17;100.00;99004.41;20700728;27;8307832;-60
2021/11/30 05:11:47;;;;;;;16.17;9.63;;;;;;;0.00;100.00;99006.94;21056728;28;20750;-61
2021/11/30 05:22:25;;;;;;;15.03;9.30;;;;;;;-0.25;100.00;99022.81;21020896;28;20309;-58
2021/11/30 05:33:22;;;;;;;16.03;10.03;;;;;;;-0.31;100.00;99028.31;20970119;28;20227;-57
2021/11/30 05:53:52;;;;;;;18.53;10.53;;;;;;;-0.42;100.00;99026.13;20767137;27;8316023;-62
2021/11/30 06:04:29;;;;;;;18.07;9.97;;;;;;;-0.52;100.00;99029.19;21057024;28;20717;-60
2021/11/30 06:15:06;;;;;;;17.70;9.47;;;;;;;-0.49;100.00;99035.16;21055913;28;20233;-60
2021/11/30 06:25:43;;;;;;;27.60;12.40;;;;;;;-0.30;100.00;99023.91;21054930;28;20332;-60
2021/11/30 06:36:20;;;;;;;25.97;11.27;;;;;;;-0.17;100.00;99025.13;21054809;28;20627;-60
2021/11/30 06:46:57;;;;;;;28.17;11.77;;;;;;;0.11;100.00;99028.31;21052011;28;20725;-59
2021/11/30 07:07:33;;;;;;;27.83;12.30;;;;;;;0.47;100.00;99012.72;20754017;27;8301155;-62
2021/11/30 07:18:21;;;;;;;21.87;11.53;;;;;;;0.61;100.00;99009.47;21055589;28;20265;-60
2021/11/30 07:48:48;;;;;;;25.10;13.33;;;;;;;0.70;100.00;98972.34;20751362;27;8333237;-60
2021/11/30 07:59:26;;;;;;;27.87;12.90;;;;;;;0.78;100.00;98958.84;21056071;28;20299;-59
2021/11/30 08:10:02;;;;;;;32.80;13.50;;;;;;;1.17;100.00;98941.22;21056352;28;20704;-59
2021/11/30 08:20:40;;;;;;;29.13;14.33;;;;;;;1.44;100.00;98923.25;21054181;28;20683;-60
2021/11/30 08:31:11;;;;;;;23.57;14.17;;;;;;;1.45;100.00;98898.63;21053270;28;20365;-58
2021/11/30 08:51:44;;;;;;;15.23;10.97;;;;;;;1.85;100.00;98870.31;20768139;27;8318471;-58
2021/11/30 09:02:22;;;;;;;10.37;9.00;;;;;;;1.78;100.00;98841.72;21056684;28;20325;-58
2021/11/30 09:12:59;;;;;;;7.13;6.53;;;;;;;1.74;100.00;98811.25;21042114;28;20225;-58
2021/11/30 09:23:36;;;;;;;7.60;6.90;;;;;;;1.95;100.00;98809.25;21054896;28;20219;-58
2021/11/30 09:34:14;;;;;;;10.87;6.87;;;;;;;2.12;100.00;98789.94;21054504;28;20325;-58
2021/11/30 09:44:52;;;;;;;7.47;6.50;;;;;;;2.32;100.00;98760.75;21078010;28;20689;-58
2021/11/30 10:05:23;;;;;;;6.87;6.13;;;;;;;2.81;100.00;98715.84;20747531;27;8288583;-59
2021/11/30 10:25:54;;;;;;;10.70;9.60;;;;;;;1.98;100.00;98687.25;20752856;27;8313278;-57
2021/11/30 10:36:31;;;;;;;10.83;9.33;;;;;;;2.19;100.00;98662.38;21057515;28;20642;-59
2021/11/30 10:47:18;;;;;;;11.80;10.60;;;;;;;2.03;100.00;98632.63;21056429;28;20250;-60
2021/11/30 10:57:57;;;;;;;16.03;12.50;;;;;;;2.05;100.00;98604.47;21055589;28;20230;-59
2021/11/30 11:18:41;;;;;;;16.27;12.83;;;;;;;2.09;100.00;98548.09;20689770;27;8292340;-56
2021/11/30 11:29:26;;;;;;;15.90;13.47;;;;;;;2.24;100.00;98515.63;20972505;28;20369;-56
2021/11/30 11:40:03;;;;;;;15.03;12.23;;;;;;;2.43;100.00;98483.78;21016194;28;20620;-56
2021/11/30 11:50:59;;;;;;;15.90;12.93;;;;;;;2.32;100.00;98450.22;21055257;28;20286;-56
2021/11/30 12:01:37;;;;;;;19.13;13.30;;;;;;;2.22;100.00;98396.47;21053721;28;20487;-56
2021/11/30 12:12:28;;;;;;;14.10;11.27;;;;;;;2.04;100.00;98355.50;21052421;28;20275;-56
2021/11/30 12:33:02;;;;;;;12.47;10.83;;;;;;;1.91;100.00;98313.31;20702799;27;8284242;-59
2021/11/30 12:43:45;;;;;;;13.57;11.57;;;;;;;1.84;100.00;98279.59;20957019;28;20270;-58
2021/11/30 12:54:33;;;;;;;12.00;10.43;;;;;;;1.88;100.00;98244.28;21055857;28;20251;-59
2021/11/30 13:05:38;;;;;;;11.47;9.27;;;;;;;1.90;100.00;98210.88;21044084;28;20324;-58
2021/11/30 13:16:15;;;;;;;11.17;9.80;;;;;;;2.10;100.00;98190.25;21041506;28;20307;-59
2021/11/30 13:36:59;;;;;;;11.40;10.20;;;;;;;2.24;100.00;98142.00;20771181;27;8281886;-59
2021/11/30 13:47:36;;;;;;;11.23;10.03;;;;;;;1.89;100.00;98115.34;21056687;28;20235;-59
2021/11/30 13:58:18;;;;;;;15.27;12.30;;;;;;;1.64;100.00;98095.03;21055673;28;20304;-59
2021/11/30 14:19:23;;;;;;;19.13;13.53;;;;;;;1.00;100.00;98036.03;20860231;27;8282901;-59
2021/11/30 14:30:00;;;;;;;18.83;13.37;;;;;;;0.67;100.00;98001.38;21140793;28;20279;-59
2021/11/30 14:40:32;;;;;;;20.27;13.40;;;;;;;0.72;100.00;97973.91;21134805;28;20255;-59
2021/11/30 14:51:15;;;;;;;16.40;11.93;;;;;;;0.85;100.00;97963.47;21116909;28;20291;-59
2021/11/30 15:01:58;;;;;;;18.00;12.77;;;;;;;0.63;100.00;97926.41;21056219;28;20707;-59
2021/11/30 15:12:35;;;;;;;18.43;12.10;;;;;;;0.41;100.00;97916.41;21073377;28;20718;-59
2021/11/30 15:33:06;;;;;;;18.07;13.27;;;;;;;0.46;100.00;97887.28;20693066;27;8362490;-60
2021/11/30 15:43:43;;;;;;;16.70;12.53;;;;;;;0.50;100.00;97867.75;20972828;28;20227;-59
2021/11/30 16:04:14;;;;;;;18.53;14.00;;;;;;;0.88;100.00;97837.28;20661162;27;9284082;-55
2021/11/30 16:14:51;;;;;;;17.90;14.13;;;;;;;1.00;100.00;97828.63;21054903;28;20234;-58
2021/11/30 16:25:28;;;;;;;18.20;13.37;;;;;;;0.99;100.00;97819.06;21055309;28;20237;-57
2021/11/30 16:36:05;;;;;;;13.73;11.90;;;;;;;1.05;100.00;97813.41;21053592;28;20309;-57
2021/11/30 17:06:31;;;;;;;13.93;12.43;;;;;;;1.31;100.00;97785.44;20751832;27;8317101;-57
2021/11/30 17:17:08;;;;;;;10.87;9.77;;;;;;;1.28;100.00;97782.16;21056358;28;20230;-57
2021/11/30 17:27:45;;;;;;;12.17;10.57;;;;;;;1.05;100.00;97787.16;21042769;28;20233;-58
2021/11/30 17:48:17;;;;;;;12.23;10.93;;;;;;;1.24;100.00;97778.88;20637538;27;8856926;-57
2021/11/30 17:58:54;;;;;;;16.97;12.97;;;;;;;1.40;100.00;97787.41;21018086;28;20237;-57
2021/11/30 18:09:31;;;;;;;16.50;14.47;;;;;;;1.53;100.00;97795.31;21021596;28;20325;-58
2021/11/30 18:20:08;;;;;;;17.03;14.47;;;;;;;1.34;100.00;97787.81;21019091;28;20375;-57
2021/11/30 18:41:00;;;;;;;16.23;13.33;;;;;;;1.28;100.00;97800.53;20895874;27;8320329;-58
2021/11/30 19:01:36;;;;;;;18.50;15.43;;;;;;;1.54;100.00;97823.28;20666734;27;8332727;-57
2021/11/30 19:12:13;;;;;;;19.73;15.57;;;;;;;1.69;100.00;97819.59;21047147;28;20226;-60
2021/11/30 19:22:50;;;;;;;20.03;15.77;;;;;;;1.84;100.00;97827.38;21006588;28;20243;-58
2021/11/30 19:43:27;;;;;;;18.73;14.80;;;;;;;2.10;100.00;97835.16;20636487;27;8259770;-57
2021/11/30 20:24:46;;;;;;;15.50;11.57;;;;;;;2.39;100.00;97880.47;20696789;27;8309370;-59
2021/11/30 20:55:18;;;;;;;12.03;9.70;;;;;;;2.45;100.00;97911.63;20603723;27;8401708;-58
2021/11/30 21:15:54;;;;;;;15.57;10.50;;;;;;;2.50;100.00;97949.00;20606843;27;8300030;-57
2021/11/30 21:36:51;;;;;;;19.50;11.93;;;;;;;2.48;100.00;98010.56;20739009;27;8321926;-56
2021/11/30 21:47:30;;;;;;;9.13;6.97;;;;;;;2.21;100.00;98031.69;20964913;28;20262;-58
2021/11/30 22:08:02;;;;;;;8.87;6.20;;;;;;;2.02;100.00;98078.59;20699411;27;8332981;-58
2021/11/30 22:28:36;;;;;;;12.07;8.97;;;;;;;1.98;100.00;98132.31;20933174;27;8339389;-57
2021/11/30 22:39:13;;;;;;;11.57;8.87;;;;;;;1.87;100.00;98175.09;21211619;28;20572;-57
2021/11/30 22:49:50;;;;;;;10.10;8.60;;;;;;;1.76;100.00;98193.31;21224643;28;20227;-58
2021/11/30 23:00:34;;;;;;;10.23;9.03;;;;;;;1.67;100.00;98228.06;21200400;28;20243;-56
2021/11/30 23:11:11;;;;;;;10.43;9.10;;;;;;;1.48;100.00;98259.88;21223418;28;20599;-56
2021/11/30 23:21:48;;;;;;;10.10;8.70;;;;;;;1.26;100.00;98277.84;21220761;28;20228;-59
2021/11/30 23:52:14;;;;;;;10.03;8.90;;;;;;;0.95;100.00;98374.19;20695953;27;8286810;-56
